sensor_id;sensor_type;location;lat;lon;timestamp;temperature;humidity
9971;DHT22;5026;51.494;11.974;2023-03-01T00:01:27;-0.90;96.70
9971;DHT22;5026;51.494;11.974;2023-03-01T00:03:54;-0.90;96.70
9971;DHT22;5026;51.494;11.974;2023-03-01T00:06:23;-0.90;96.70
9971;DHT22;5026;51.494;11.974;2023-03-01T00:08:50;-0.90;96.70
9971;DHT22;5026;51.494;11.974;2023-03-01T00:11:20;-0.90;96.70
9971;DHT22;5026;51.494;11.974;2023-03-01T00:13:48;-0.90;96.70
9971;DHT22;5026;51.494;11.974;2023-03-01T00:16:21;-0.90;96.70
9971;DHT22;5026;51.494;11.974;2023-03-01T00:18:48;-0.90;96.80
9971;DHT22;5026;51.494;11.974;2023-03-01T00:21:16;-0.90;96.80
9971;DHT22;5026;51.494;11.974;2023-03-01T00:23:44;-0.90;96.80
9971;DHT22;5026;51.494;11.974;2023-03-01T00:26:15;-0.90;96.90
9971;DHT22;5026;51.494;11.974;2023-03-01T00:28:42;-0.90;96.80
9971;DHT22;5026;51.494;11.974;2023-03-01T00:31:11;-1.00;96.90
9971;DHT22;5026;51.494;11.974;2023-03-01T00:33:38;-1.00;96.90
9971;DHT22;5026;51.494;11.974;2023-03-01T00:36:06;-1.00;97.00
9971;DHT22;5026;51.494;11.974;2023-03-01T00:38:35;-1.10;97.00
9971;DHT22;5026;51.494;11.974;2023-03-01T00:41:05;-1.20;97.10
9971;DHT22;5026;51.494;11.974;2023-03-01T00:43:32;-1.10;97.20
9971;DHT22;5026;51.494;11.974;2023-03-01T00:46:02;-1.10;97.20
9971;DHT22;5026;51.494;11.974;2023-03-01T00:48:29;-1.10;97.20
9971;DHT22;5026;51.494;11.974;2023-03-01T00:50:56;-1.10;97.20
9971;DHT22;5026;51.494;11.974;2023-03-01T00:53:23;-1.10;97.20
9971;DHT22;5026;51.494;11.974;2023-03-01T00:55:50;-1.10;97.30
9971;DHT22;5026;51.494;11.974;2023-03-01T00:58:18;-1.10;97.40
9971;DHT22;5026;51.494;11.974;2023-03-01T01:00:45;-1.20;97.50
9971;DHT22;5026;51.494;11.974;2023-03-01T01:03:12;-1.20;97.50
9971;DHT22;5026;51.494;11.974;2023-03-01T01:05:39;-1.20;97.50
9971;DHT22;5026;51.494;11.974;2023-03-01T01:08:06;-1.20;97.50
9971;DHT22;5026;51.494;11.974;2023-03-01T01:10:33;-1.10;97.40
9971;DHT22;5026;51.494;11.974;2023-03-01T01:13:00;-1.10;97.40
9971;DHT22;5026;51.494;11.974;2023-03-01T01:15:29;-1.00;97.40
9971;DHT22;5026;51.494;11.974;2023-03-01T01:17:56;-1.00;97.30
9971;DHT22;5026;51.494;11.974;2023-03-01T01:20:23;-1.00;97.30
9971;DHT22;5026;51.494;11.974;2023-03-01T01:22:50;-1.00;97.30
9971;DHT22;5026;51.494;11.974;2023-03-01T01:25:18;-1.00;97.30
9971;DHT22;5026;51.494;11.974;2023-03-01T01:27:45;-1.10;97.40
9971;DHT22;5026;51.494;11.974;2023-03-01T01:30:12;-0.50;97.60
9971;DHT22;5026;51.494;11.974;2023-03-01T01:32:41;-1.10;97.40
9971;DHT22;5026;51.494;11.974;2023-03-01T01:35:08;-1.10;97.50
9971;DHT22;5026;51.494;11.974;2023-03-01T01:37:35;-1.20;97.50
9971;DHT22;5026;51.494;11.974;2023-03-01T01:40:03;-1.20;97.60
9971;DHT22;5026;51.494;11.974;2023-03-01T01:42:30;-1.30;97.70
9971;DHT22;5026;51.494;11.974;2023-03-01T01:45:30;-1.40;97.90
9971;DHT22;5026;51.494;11.974;2023-03-01T01:48:02;-1.40;97.80
9971;DHT22;5026;51.494;11.974;2023-03-01T01:50:30;-1.50;97.90
9971;DHT22;5026;51.494;11.974;2023-03-01T01:53:05;-1.50;98.00
9971;DHT22;5026;51.494;11.974;2023-03-01T01:55:33;-1.50;98.10
9971;DHT22;5026;51.494;11.974;2023-03-01T01:58:04;-1.60;98.10
9971;DHT22;5026;51.494;11.974;2023-03-01T02:00:32;-1.60;98.10
9971;DHT22;5026;51.494;11.974;2023-03-01T02:03:03;-1.50;98.10
9971;DHT22;5026;51.494;11.974;2023-03-01T02:05:37;-1.40;98.00
9971;DHT22;5026;51.494;11.974;2023-03-01T02:08:05;-3.00;97.50
9971;DHT22;5026;51.494;11.974;2023-03-01T02:10:33;-1.40;98.00
9971;DHT22;5026;51.494;11.974;2023-03-01T02:13:01;-1.40;98.00
9971;DHT22;5026;51.494;11.974;2023-03-01T02:15:32;-1.30;97.90
9971;DHT22;5026;51.494;11.974;2023-03-01T02:18:01;-1.40;97.90
9971;DHT22;5026;51.494;11.974;2023-03-01T02:20:34;-1.30;97.90
9971;DHT22;5026;51.494;11.974;2023-03-01T02:23:02;-1.40;97.90
9971;DHT22;5026;51.494;11.974;2023-03-01T02:25:36;-1.40;97.90
9971;DHT22;5026;51.494;11.974;2023-03-01T02:30:47;-1.40;97.90
9971;DHT22;5026;51.494;11.974;2023-03-01T02:33:30;-1.40;97.90
9971;DHT22;5026;51.494;11.974;2023-03-01T02:35:59;-1.50;97.90
9971;DHT22;5026;51.494;11.974;2023-03-01T02:38:27;-1.50;98.00
9971;DHT22;5026;51.494;11.974;2023-03-01T02:40:54;-1.60;98.20
9971;DHT22;5026;51.494;11.974;2023-03-01T02:43:26;-1.60;98.10
9971;DHT22;5026;51.494;11.974;2023-03-01T02:45:58;-1.50;98.10
9971;DHT22;5026;51.494;11.974;2023-03-01T02:48:25;-1.50;98.20
9971;DHT22;5026;51.494;11.974;2023-03-01T02:51:02;-1.60;98.10
9971;DHT22;5026;51.494;11.974;2023-03-01T02:53:38;-1.60;98.20
9971;DHT22;5026;51.494;11.974;2023-03-01T02:56:06;-1.50;98.20
9971;DHT22;5026;51.494;11.974;2023-03-01T02:58:38;-1.60;98.20
9971;DHT22;5026;51.494;11.974;2023-03-01T03:01:12;-1.60;98.20
9971;DHT22;5026;51.494;11.974;2023-03-01T03:03:41;-1.70;98.30
9971;DHT22;5026;51.494;11.974;2023-03-01T03:06:08;-1.70;98.30
9971;DHT22;5026;51.494;11.974;2023-03-01T03:08:35;-1.70;98.30
9971;DHT22;5026;51.494;11.974;2023-03-01T03:11:02;-1.70;98.30
9971;DHT22;5026;51.494;11.974;2023-03-01T03:13:30;-1.70;98.30
9971;DHT22;5026;51.494;11.974;2023-03-01T03:15:58;-1.70;98.30
9971;DHT22;5026;51.494;11.974;2023-03-01T03:18:26;-1.70;98.30
9971;DHT22;5026;51.494;11.974;2023-03-01T03:20:54;-1.70;98.30
9971;DHT22;5026;51.494;11.974;2023-03-01T03:23:21;-1.70;98.30
9971;DHT22;5026;51.494;11.974;2023-03-01T03:25:49;-1.70;98.30
9971;DHT22;5026;51.494;11.974;2023-03-01T03:28:17;-1.70;98.30
9971;DHT22;5026;51.494;11.974;2023-03-01T03:30:44;-1.70;98.30
9971;DHT22;5026;51.494;11.974;2023-03-01T03:33:12;-1.70;98.30
9971;DHT22;5026;51.494;11.974;2023-03-01T03:35:42;-1.70;98.30
9971;DHT22;5026;51.494;11.974;2023-03-01T03:38:11;-1.80;98.40
9971;DHT22;5026;51.494;11.974;2023-03-01T03:40:43;-1.80;98.40
9971;DHT22;5026;51.494;11.974;2023-03-01T03:43:12;-1.90;98.40
9971;DHT22;5026;51.494;11.974;2023-03-01T03:45:39;-1.90;98.50
9971;DHT22;5026;51.494;11.974;2023-03-01T03:48:08;-1.90;98.50
9971;DHT22;5026;51.494;11.974;2023-03-01T03:50:36;-1.80;98.50
9971;DHT22;5026;51.494;11.974;2023-03-01T03:53:05;-1.90;98.50
9971;DHT22;5026;51.494;11.974;2023-03-01T03:55:33;-1.90;98.60
9971;DHT22;5026;51.494;11.974;2023-03-01T03:58:01;-1.90;98.80
9971;DHT22;5026;51.494;11.974;2023-03-01T04:00:33;-1.90;98.60
9971;DHT22;5026;51.494;11.974;2023-03-01T04:03:00;-2.00;98.70
9971;DHT22;5026;51.494;11.974;2023-03-01T04:05:28;-2.00;98.70
9971;DHT22;5026;51.494;11.974;2023-03-01T04:07:55;-2.00;98.80
9971;DHT22;5026;51.494;11.974;2023-03-01T04:10:30;-2.10;98.80
9971;DHT22;5026;51.494;11.974;2023-03-01T04:12:57;-2.10;98.80
9971;DHT22;5026;51.494;11.974;2023-03-01T04:15:25;-2.10;98.80
9971;DHT22;5026;51.494;11.974;2023-03-01T04:17:53;-2.00;98.80
9971;DHT22;5026;51.494;11.974;2023-03-01T04:20:22;-2.10;98.80
9971;DHT22;5026;51.494;11.974;2023-03-01T04:22:52;-0.30;99.50
9971;DHT22;5026;51.494;11.974;2023-03-01T04:25:19;-2.10;99.00
9971;DHT22;5026;51.494;11.974;2023-03-01T04:27:47;-2.10;99.00
9971;DHT22;5026;51.494;11.974;2023-03-01T04:30:15;-2.20;99.00
9971;DHT22;5026;51.494;11.974;2023-03-01T04:32:42;-2.30;99.00
9971;DHT22;5026;51.494;11.974;2023-03-01T04:35:09;-2.30;99.30
9971;DHT22;5026;51.494;11.974;2023-03-01T04:37:36;-2.30;99.10
9971;DHT22;5026;51.494;11.974;2023-03-01T04:40:03;-2.30;99.20
9971;DHT22;5026;51.494;11.974;2023-03-01T04:42:38;-2.40;99.20
9971;DHT22;5026;51.494;11.974;2023-03-01T04:45:08;-2.40;99.30
9971;DHT22;5026;51.494;11.974;2023-03-01T04:47:39;-2.40;99.40
9971;DHT22;5026;51.494;11.974;2023-03-01T04:50:07;-2.50;99.40
9971;DHT22;5026;51.494;11.974;2023-03-01T04:52:34;-2.40;99.50
9971;DHT22;5026;51.494;11.974;2023-03-01T04:55:01;-2.50;99.50
9971;DHT22;5026;51.494;11.974;2023-03-01T04:57:29;-2.50;99.50
9971;DHT22;5026;51.494;11.974;2023-03-01T04:59:56;-2.60;99.50
9971;DHT22;5026;51.494;11.974;2023-03-01T05:02:24;-0.80;99.90
9971;DHT22;5026;51.494;11.974;2023-03-01T05:04:51;-2.60;99.60
9971;DHT22;5026;51.494;11.974;2023-03-01T05:07:23;-2.60;99.70
9971;DHT22;5026;51.494;11.974;2023-03-01T05:09:50;-2.60;99.70
9971;DHT22;5026;51.494;11.974;2023-03-01T05:12:17;-2.60;99.70
9971;DHT22;5026;51.494;11.974;2023-03-01T05:14:44;-1.20;99.90
9971;DHT22;5026;51.494;11.974;2023-03-01T05:17:10;-2.50;99.80
9971;DHT22;5026;51.494;11.974;2023-03-01T05:19:39;-2.60;99.80
9971;DHT22;5026;51.494;11.974;2023-03-01T05:22:08;-2.60;99.90
9971;DHT22;5026;51.494;11.974;2023-03-01T05:24:35;-2.60;99.90
9971;DHT22;5026;51.494;11.974;2023-03-01T05:27:04;-2.60;99.90
9971;DHT22;5026;51.494;11.974;2023-03-01T05:29:32;-2.60;99.90
9971;DHT22;5026;51.494;11.974;2023-03-01T05:32:01;-2.60;99.90
9971;DHT22;5026;51.494;11.974;2023-03-01T05:34:30;-2.60;99.90
9971;DHT22;5026;51.494;11.974;2023-03-01T05:36:58;-2.70;99.90
9971;DHT22;5026;51.494;11.974;2023-03-01T05:39:27;-2.70;99.90
9971;DHT22;5026;51.494;11.974;2023-03-01T05:41:55;-2.70;99.90
9971;DHT22;5026;51.494;11.974;2023-03-01T05:44:23;-2.70;99.90
9971;DHT22;5026;51.494;11.974;2023-03-01T05:46:51;-2.70;99.90
9971;DHT22;5026;51.494;11.974;2023-03-01T05:49:18;-2.70;99.90
9971;DHT22;5026;51.494;11.974;2023-03-01T05:51:48;-2.70;99.90
9971;DHT22;5026;51.494;11.974;2023-03-01T05:54:18;-2.60;99.90
9971;DHT22;5026;51.494;11.974;2023-03-01T05:56:45;-2.60;99.90
9971;DHT22;5026;51.494;11.974;2023-03-01T05:59:12;-2.60;99.90
9971;DHT22;5026;51.494;11.974;2023-03-01T06:01:42;-2.60;99.90
9971;DHT22;5026;51.494;11.974;2023-03-01T06:04:09;-2.60;99.90
9971;DHT22;5026;51.494;11.974;2023-03-01T06:06:36;-2.60;99.90
9971;DHT22;5026;51.494;11.974;2023-03-01T06:09:04;-2.50;99.90
9971;DHT22;5026;51.494;11.974;2023-03-01T06:11:35;-2.50;99.90
9971;DHT22;5026;51.494;11.974;2023-03-01T06:14:02;-2.50;99.90
9971;DHT22;5026;51.494;11.974;2023-03-01T06:16:29;-2.50;99.90
9971;DHT22;5026;51.494;11.974;2023-03-01T06:18:56;-2.50;99.90
9971;DHT22;5026;51.494;11.974;2023-03-01T06:21:23;-2.50;99.90
9971;DHT22;5026;51.494;11.974;2023-03-01T06:23:50;-2.40;99.90
9971;DHT22;5026;51.494;11.974;2023-03-01T06:26:17;-2.40;99.80
9971;DHT22;5026;51.494;11.974;2023-03-01T06:28:45;-2.40;99.80
9971;DHT22;5026;51.494;11.974;2023-03-01T06:31:12;-2.40;99.80
9971;DHT22;5026;51.494;11.974;2023-03-01T06:33:39;-2.30;99.80
9971;DHT22;5026;51.494;11.974;2023-03-01T06:36:07;-2.30;99.80
9971;DHT22;5026;51.494;11.974;2023-03-01T06:38:35;-2.20;99.80
9971;DHT22;5026;51.494;11.974;2023-03-01T06:41:02;-2.20;99.80
9971;DHT22;5026;51.494;11.974;2023-03-01T06:43:29;-2.20;99.70
9971;DHT22;5026;51.494;11.974;2023-03-01T06:45:58;-2.10;99.70
9971;DHT22;5026;51.494;11.974;2023-03-01T06:48:25;-2.00;99.70
9971;DHT22;5026;51.494;11.974;2023-03-01T06:50:52;-2.00;99.70
9971;DHT22;5026;51.494;11.974;2023-03-01T06:53:18;-1.90;99.60
9971;DHT22;5026;51.494;11.974;2023-03-01T06:55:45;-1.90;99.50
9971;DHT22;5026;51.494;11.974;2023-03-01T06:58:12;-1.90;99.40
9971;DHT22;5026;51.494;11.974;2023-03-01T07:00:39;-1.80;99.50
9971;DHT22;5026;51.494;11.974;2023-03-01T07:03:11;-1.70;99.50
9971;DHT22;5026;51.494;11.974;2023-03-01T07:05:38;-1.60;99.50
9971;DHT22;5026;51.494;11.974;2023-03-01T07:08:05;-1.60;99.40
9971;DHT22;5026;51.494;11.974;2023-03-01T07:10:32;-1.60;99.40
9971;DHT22;5026;51.494;11.974;2023-03-01T07:12:59;-1.30;99.40
9971;DHT22;5026;51.494;11.974;2023-03-01T07:15:27;-1.40;99.40
9971;DHT22;5026;51.494;11.974;2023-03-01T07:17:54;-1.40;99.30
9971;DHT22;5026;51.494;11.974;2023-03-01T07:20:23;-1.30;99.10
9971;DHT22;5026;51.494;11.974;2023-03-01T07:22:50;-1.30;99.10
9971;DHT22;5026;51.494;11.974;2023-03-01T07:25:17;-1.30;99.10
9971;DHT22;5026;51.494;11.974;2023-03-01T07:27:49;-1.20;99.20
9971;DHT22;5026;51.494;11.974;2023-03-01T07:30:16;-1.10;99.10
9971;DHT22;5026;51.494;11.974;2023-03-01T07:32:43;-0.50;99.30
9971;DHT22;5026;51.494;11.974;2023-03-01T07:35:11;-1.00;99.00
9971;DHT22;5026;51.494;11.974;2023-03-01T07:37:39;-0.90;98.90
9971;DHT22;5026;51.494;11.974;2023-03-01T07:40:07;-0.80;98.80
9971;DHT22;5026;51.494;11.974;2023-03-01T07:42:34;-0.80;98.70
9971;DHT22;5026;51.494;11.974;2023-03-01T07:45:01;-0.70;98.70
9971;DHT22;5026;51.494;11.974;2023-03-01T07:47:28;-0.60;98.70
9971;DHT22;5026;51.494;11.974;2023-03-01T07:49:55;-0.40;98.60
9971;DHT22;5026;51.494;11.974;2023-03-01T07:52:22;2.30;98.20
9971;DHT22;5026;51.494;11.974;2023-03-01T07:54:50;3.50;95.50
9971;DHT22;5026;51.494;11.974;2023-03-01T07:57:17;5.80;93.10
9971;DHT22;5026;51.494;11.974;2023-03-01T07:59:44;6.80;90.40
9971;DHT22;5026;51.494;11.974;2023-03-01T08:02:11;6.70;87.10
9971;DHT22;5026;51.494;11.974;2023-03-01T08:04:38;6.40;86.10
9971;DHT22;5026;51.494;11.974;2023-03-01T08:07:05;7.70;85.30
9971;DHT22;5026;51.494;11.974;2023-03-01T08:09:34;7.30;81.90
9971;DHT22;5026;51.494;11.974;2023-03-01T08:12:04;7.60;81.80
9971;DHT22;5026;51.494;11.974;2023-03-01T08:14:31;8.50;81.70
9971;DHT22;5026;51.494;11.974;2023-03-01T08:16:58;9.10;77.10
9971;DHT22;5026;51.494;11.974;2023-03-01T08:19:25;9.30;78.70
9971;DHT22;5026;51.494;11.974;2023-03-01T08:21:53;9.40;75.30
9971;DHT22;5026;51.494;11.974;2023-03-01T08:24:20;8.70;75.60
9971;DHT22;5026;51.494;11.974;2023-03-01T08:26:48;9.30;76.70
9971;DHT22;5026;51.494;11.974;2023-03-01T08:29:16;10.50;74.10
9971;DHT22;5026;51.494;11.974;2023-03-01T08:31:43;13.70;73.60
9971;DHT22;5026;51.494;11.974;2023-03-01T08:34:13;15.10;66.00
9971;DHT22;5026;51.494;11.974;2023-03-01T08:36:42;14.70;65.00
9971;DHT22;5026;51.494;11.974;2023-03-01T08:39:11;13.90;64.60
9971;DHT22;5026;51.494;11.974;2023-03-01T08:41:38;15.10;63.40
9971;DHT22;5026;51.494;11.974;2023-03-01T08:44:05;12.70;64.10
9971;DHT22;5026;51.494;11.974;2023-03-01T08:46:35;11.30;64.70
9971;DHT22;5026;51.494;11.974;2023-03-01T08:49:04;12.60;65.70
9971;DHT22;5026;51.494;11.974;2023-03-01T08:51:31;13.30;64.90
9971;DHT22;5026;51.494;11.974;2023-03-01T08:54:02;9.80;66.60
9971;DHT22;5026;51.494;11.974;2023-03-01T08:56:29;7.80;67.40
9971;DHT22;5026;51.494;11.974;2023-03-01T08:58:56;5.30;71.70
9971;DHT22;5026;51.494;11.974;2023-03-01T09:01:23;5.20;76.70
9971;DHT22;5026;51.494;11.974;2023-03-01T09:03:51;6.10;77.50
9971;DHT22;5026;51.494;11.974;2023-03-01T09:06:18;5.40;76.90
9971;DHT22;5026;51.494;11.974;2023-03-01T09:08:47;4.30;79.20
9971;DHT22;5026;51.494;11.974;2023-03-01T09:11:16;6.10;85.10
9971;DHT22;5026;51.494;11.974;2023-03-01T09:13:43;4.00;84.00
9971;DHT22;5026;51.494;11.974;2023-03-01T09:16:12;4.00;84.80
9971;DHT22;5026;51.494;11.974;2023-03-01T09:18:39;3.50;86.80
9971;DHT22;5026;51.494;11.974;2023-03-01T09:21:10;3.70;88.40
9971;DHT22;5026;51.494;11.974;2023-03-01T09:23:38;3.70;87.20
9971;DHT22;5026;51.494;11.974;2023-03-01T09:26:05;3.50;89.00
9971;DHT22;5026;51.494;11.974;2023-03-01T09:28:34;3.20;88.00
9971;DHT22;5026;51.494;11.974;2023-03-01T09:31:02;2.80;89.80
9971;DHT22;5026;51.494;11.974;2023-03-01T09:33:30;2.50;90.30
9971;DHT22;5026;51.494;11.974;2023-03-01T09:35:58;2.80;91.10
9971;DHT22;5026;51.494;11.974;2023-03-01T09:38:26;3.10;91.20
9971;DHT22;5026;51.494;11.974;2023-03-01T09:40:53;3.40;91.00
9971;DHT22;5026;51.494;11.974;2023-03-01T09:43:24;3.10;90.80
9971;DHT22;5026;51.494;11.974;2023-03-01T09:45:54;3.10;90.60
9971;DHT22;5026;51.494;11.974;2023-03-01T09:48:24;2.80;91.20
9971;DHT22;5026;51.494;11.974;2023-03-01T09:50:53;2.80;91.80
9971;DHT22;5026;51.494;11.974;2023-03-01T09:53:22;3.00;92.00
9971;DHT22;5026;51.494;11.974;2023-03-01T09:55:55;2.80;92.60
9971;DHT22;5026;51.494;11.974;2023-03-01T09:58:46;2.70;92.60
9971;DHT22;5026;51.494;11.974;2023-03-01T10:01:29;2.80;93.00
9971;DHT22;5026;51.494;11.974;2023-03-01T10:04:12;2.60;93.40
9971;DHT22;5026;51.494;11.974;2023-03-01T10:06:44;3.00;93.70
9971;DHT22;5026;51.494;11.974;2023-03-01T10:09:14;3.10;93.50
9971;DHT22;5026;51.494;11.974;2023-03-01T10:11:46;3.30;93.30
9971;DHT22;5026;51.494;11.974;2023-03-01T10:14:24;3.30;93.20
9971;DHT22;5026;51.494;11.974;2023-03-01T10:16:57;3.20;93.20
9971;DHT22;5026;51.494;11.974;2023-03-01T10:19:31;3.20;93.20
9971;DHT22;5026;51.494;11.974;2023-03-01T10:22:03;3.10;93.30
9971;DHT22;5026;51.494;11.974;2023-03-01T10:24:34;3.10;93.70
9971;DHT22;5026;51.494;11.974;2023-03-01T10:27:06;3.20;93.90
9971;DHT22;5026;51.494;11.974;2023-03-01T10:29:39;3.20;93.90
9971;DHT22;5026;51.494;11.974;2023-03-01T10:32:06;2.90;93.80
9971;DHT22;5026;51.494;11.974;2023-03-01T10:34:34;3.00;94.30
9971;DHT22;5026;51.494;11.974;2023-03-01T10:37:10;3.20;94.30
9971;DHT22;5026;51.494;11.974;2023-03-01T10:39:54;3.10;94.50
9971;DHT22;5026;51.494;11.974;2023-03-01T10:42:27;3.10;94.60
9971;DHT22;5026;51.494;11.974;2023-03-01T10:44:55;3.00;94.20
9971;DHT22;5026;51.494;11.974;2023-03-01T10:47:24;3.20;94.40
9971;DHT22;5026;51.494;11.974;2023-03-01T10:49:53;3.00;94.00
9971;DHT22;5026;51.494;11.974;2023-03-01T10:52:24;3.10;94.20
9971;DHT22;5026;51.494;11.974;2023-03-01T10:54:54;3.20;94.10
9971;DHT22;5026;51.494;11.974;2023-03-01T10:57:33;3.30;94.00
9971;DHT22;5026;51.494;11.974;2023-03-01T11:00:18;3.50;93.70
9971;DHT22;5026;51.494;11.974;2023-03-01T11:02:48;3.60;92.40
9971;DHT22;5026;51.494;11.974;2023-03-01T11:05:21;3.60;91.20
9971;DHT22;5026;51.494;11.974;2023-03-01T11:07:52;3.60;91.10
9971;DHT22;5026;51.494;11.974;2023-03-01T11:10:22;3.90;91.30
9971;DHT22;5026;51.494;11.974;2023-03-01T11:12:53;3.80;90.80
9971;DHT22;5026;51.494;11.974;2023-03-01T11:15:23;3.50;91.10
9971;DHT22;5026;51.494;11.974;2023-03-01T11:17:50;3.70;91.40
9971;DHT22;5026;51.494;11.974;2023-03-01T11:20:25;3.80;90.80
9971;DHT22;5026;51.494;11.974;2023-03-01T11:22:54;3.70;90.20
9971;DHT22;5026;51.494;11.974;2023-03-01T11:25:25;3.80;90.00
9971;DHT22;5026;51.494;11.974;2023-03-01T11:27:55;4.00;90.10
9971;DHT22;5026;51.494;11.974;2023-03-01T11:30:26;4.00;90.20
9971;DHT22;5026;51.494;11.974;2023-03-01T11:33:17;4.20;89.30
9971;DHT22;5026;51.494;11.974;2023-03-01T11:35:53;4.20;87.40
9971;DHT22;5026;51.494;11.974;2023-03-01T11:38:24;4.10;86.30
9971;DHT22;5026;51.494;11.974;2023-03-01T11:40:57;4.20;86.10
9971;DHT22;5026;51.494;11.974;2023-03-01T11:43:35;4.30;84.60
9971;DHT22;5026;51.494;11.974;2023-03-01T11:49:46;4.40;84.50
9971;DHT22;5026;51.494;11.974;2023-03-01T11:52:23;6.00;85.10
9971;DHT22;5026;51.494;11.974;2023-03-01T11:55:02;4.40;83.60
9971;DHT22;5026;51.494;11.974;2023-03-01T11:57:43;4.40;83.00
9971;DHT22;5026;51.494;11.974;2023-03-01T12:00:37;4.50;83.30
9971;DHT22;5026;51.494;11.974;2023-03-01T12:03:26;4.60;82.40
9971;DHT22;5026;51.494;11.974;2023-03-01T12:06:09;4.50;82.80
9971;DHT22;5026;51.494;11.974;2023-03-01T12:08:43;4.50;82.50
9971;DHT22;5026;51.494;11.974;2023-03-01T12:11:23;4.40;82.60
9971;DHT22;5026;51.494;11.974;2023-03-01T12:14:31;4.50;83.30
9971;DHT22;5026;51.494;11.974;2023-03-01T12:17:15;4.60;82.70
9971;DHT22;5026;51.494;11.974;2023-03-01T12:20:01;4.60;82.20
9971;DHT22;5026;51.494;11.974;2023-03-01T12:22:31;4.80;82.00
9971;DHT22;5026;51.494;11.974;2023-03-01T12:25:25;4.90;81.70
9971;DHT22;5026;51.494;11.974;2023-03-01T12:31:29;4.70;79.50
9971;DHT22;5026;51.494;11.974;2023-03-01T12:34:05;4.90;80.50
9971;DHT22;5026;51.494;11.974;2023-03-01T12:36:50;5.00;80.10
9971;DHT22;5026;51.494;11.974;2023-03-01T12:39:33;5.00;79.40
9971;DHT22;5026;51.494;11.974;2023-03-01T12:42:12;5.10;79.60
9971;DHT22;5026;51.494;11.974;2023-03-01T12:45:04;5.10;79.10
9971;DHT22;5026;51.494;11.974;2023-03-01T12:47:58;5.00;78.30
9971;DHT22;5026;51.494;11.974;2023-03-01T12:50:39;5.00;77.60
9971;DHT22;5026;51.494;11.974;2023-03-01T12:53:18;5.00;78.10
9971;DHT22;5026;51.494;11.974;2023-03-01T12:55:46;5.00;77.90
9971;DHT22;5026;51.494;11.974;2023-03-01T12:58:23;5.10;78.20
9971;DHT22;5026;51.494;11.974;2023-03-01T13:01:05;5.20;78.20
9971;DHT22;5026;51.494;11.974;2023-03-01T13:03:48;5.30;77.30
9971;DHT22;5026;51.494;11.974;2023-03-01T13:06:25;5.60;78.00
9971;DHT22;5026;51.494;11.974;2023-03-01T13:09:00;5.50;77.10
9971;DHT22;5026;51.494;11.974;2023-03-01T13:11:32;5.60;76.30
9971;DHT22;5026;51.494;11.974;2023-03-01T13:17:00;5.50;75.30
9971;DHT22;5026;51.494;11.974;2023-03-01T13:19:28;5.60;76.20
9971;DHT22;5026;51.494;11.974;2023-03-01T13:21:59;5.60;76.30
9971;DHT22;5026;51.494;11.974;2023-03-01T13:24:33;5.70;75.80
9971;DHT22;5026;51.494;11.974;2023-03-01T13:27:22;5.70;74.20
9971;DHT22;5026;51.494;11.974;2023-03-01T13:29:56;5.60;73.90
9971;DHT22;5026;51.494;11.974;2023-03-01T13:32:26;5.50;74.40
9971;DHT22;5026;51.494;11.974;2023-03-01T13:34:55;5.60;75.30
9971;DHT22;5026;51.494;11.974;2023-03-01T13:37:27;5.90;75.10
9971;DHT22;5026;51.494;11.974;2023-03-01T13:40:00;5.70;75.00
9971;DHT22;5026;51.494;11.974;2023-03-01T13:42:38;5.70;74.70
9971;DHT22;5026;51.494;11.974;2023-03-01T13:45:20;5.50;73.20
9971;DHT22;5026;51.494;11.974;2023-03-01T13:47:50;5.60;74.10
9971;DHT22;5026;51.494;11.974;2023-03-01T13:50:21;5.60;74.10
9971;DHT22;5026;51.494;11.974;2023-03-01T13:52:54;5.80;74.60
9971;DHT22;5026;51.494;11.974;2023-03-01T13:55:26;6.40;74.80
9971;DHT22;5026;51.494;11.974;2023-03-01T13:57:56;5.80;73.90
9971;DHT22;5026;51.494;11.974;2023-03-01T14:00:31;5.90;73.40
9971;DHT22;5026;51.494;11.974;2023-03-01T14:03:09;5.90;73.00
9971;DHT22;5026;51.494;11.974;2023-03-01T14:05:38;5.90;72.30
9971;DHT22;5026;51.494;11.974;2023-03-01T14:08:20;5.90;73.20
9971;DHT22;5026;51.494;11.974;2023-03-01T14:10:55;5.90;72.20
9971;DHT22;5026;51.494;11.974;2023-03-01T14:13:35;6.00;71.80
9971;DHT22;5026;51.494;11.974;2023-03-01T14:16:19;6.10;71.00
9971;DHT22;5026;51.494;11.974;2023-03-01T14:18:57;6.10;70.00
9971;DHT22;5026;51.494;11.974;2023-03-01T14:21:29;6.00;69.40
9971;DHT22;5026;51.494;11.974;2023-03-01T14:23:58;6.10;68.60
9971;DHT22;5026;51.494;11.974;2023-03-01T14:26:25;6.10;68.60
9971;DHT22;5026;51.494;11.974;2023-03-01T14:28:52;6.00;68.10
9971;DHT22;5026;51.494;11.974;2023-03-01T14:31:34;6.10;68.40
9971;DHT22;5026;51.494;11.974;2023-03-01T14:34:02;6.20;68.10
9971;DHT22;5026;51.494;11.974;2023-03-01T14:36:30;6.20;67.70
9971;DHT22;5026;51.494;11.974;2023-03-01T14:38:59;6.30;67.30
9971;DHT22;5026;51.494;11.974;2023-03-01T14:41:32;6.10;66.10
9971;DHT22;5026;51.494;11.974;2023-03-01T14:44:03;6.20;67.30
9971;DHT22;5026;51.494;11.974;2023-03-01T14:46:34;6.30;66.60
9971;DHT22;5026;51.494;11.974;2023-03-01T14:49:04;6.20;67.00
9971;DHT22;5026;51.494;11.974;2023-03-01T14:51:36;6.20;66.30
9971;DHT22;5026;51.494;11.974;2023-03-01T14:54:13;6.10;66.80
9971;DHT22;5026;51.494;11.974;2023-03-01T14:56:45;6.10;67.80
9971;DHT22;5026;51.494;11.974;2023-03-01T14:59:12;6.10;68.80
9971;DHT22;5026;51.494;11.974;2023-03-01T15:01:40;6.00;68.70
9971;DHT22;5026;51.494;11.974;2023-03-01T15:04:11;6.00;67.50
9971;DHT22;5026;51.494;11.974;2023-03-01T15:06:39;6.10;66.70
9971;DHT22;5026;51.494;11.974;2023-03-01T15:09:13;6.30;66.50
9971;DHT22;5026;51.494;11.974;2023-03-01T15:11:40;6.50;67.20
9971;DHT22;5026;51.494;11.974;2023-03-01T15:14:27;6.00;66.70
9971;DHT22;5026;51.494;11.974;2023-03-01T15:16:56;5.90;67.10
9971;DHT22;5026;51.494;11.974;2023-03-01T15:19:26;5.90;68.00
9971;DHT22;5026;51.494;11.974;2023-03-01T15:21:55;5.90;68.50
9971;DHT22;5026;51.494;11.974;2023-03-01T15:24:26;5.90;68.60
9971;DHT22;5026;51.494;11.974;2023-03-01T15:26:56;6.60;69.00
9971;DHT22;5026;51.494;11.974;2023-03-01T15:29:29;5.90;68.60
9971;DHT22;5026;51.494;11.974;2023-03-01T15:31:58;5.80;69.00
9971;DHT22;5026;51.494;11.974;2023-03-01T15:34:28;5.80;70.00
9971;DHT22;5026;51.494;11.974;2023-03-01T15:36:57;5.80;70.90
9971;DHT22;5026;51.494;11.974;2023-03-01T15:39:42;5.70;71.50
9971;DHT22;5026;51.494;11.974;2023-03-01T15:42:11;5.70;72.20
9971;DHT22;5026;51.494;11.974;2023-03-01T15:44:39;5.60;72.30
9971;DHT22;5026;51.494;11.974;2023-03-01T15:47:25;5.60;72.90
9971;DHT22;5026;51.494;11.974;2023-03-01T15:49:53;5.60;72.70
9971;DHT22;5026;51.494;11.974;2023-03-01T15:52:23;5.50;73.00
9971;DHT22;5026;51.494;11.974;2023-03-01T15:54:59;5.50;73.30
9971;DHT22;5026;51.494;11.974;2023-03-01T15:57:27;5.50;73.50
9971;DHT22;5026;51.494;11.974;2023-03-01T15:59:54;5.50;73.90
9971;DHT22;5026;51.494;11.974;2023-03-01T16:02:21;5.40;73.50
9971;DHT22;5026;51.494;11.974;2023-03-01T16:04:49;5.30;73.50
9971;DHT22;5026;51.494;11.974;2023-03-01T16:07:16;5.30;73.60
9971;DHT22;5026;51.494;11.974;2023-03-01T16:09:43;5.30;73.70
9971;DHT22;5026;51.494;11.974;2023-03-01T16:12:14;5.30;74.40
9971;DHT22;5026;51.494;11.974;2023-03-01T16:14:41;5.30;75.20
9971;DHT22;5026;51.494;11.974;2023-03-01T16:17:08;5.20;75.80
9971;DHT22;5026;51.494;11.974;2023-03-01T16:19:36;5.10;76.50
9971;DHT22;5026;51.494;11.974;2023-03-01T16:22:04;6.50;78.20
9971;DHT22;5026;51.494;11.974;2023-03-01T16:24:30;5.00;77.80
9971;DHT22;5026;51.494;11.974;2023-03-01T16:26:57;5.00;78.30
9971;DHT22;5026;51.494;11.974;2023-03-01T16:29:26;4.90;78.70